KHVR/HVR METAR and TAF weather

Enter ICAO airport designator
Station Type Date Time Source
KHVR METAR 2022/08/16 19:53 UTC NOAA

KHVR 161953Z AUTO 00000KT 10SM CLR 33/08 A2998 RMK AO2 SLP129 T03330078


Station Type Date Time Source
KHVR Decoded METAR 2022/08/16 19:53 UTC NOAA

HAVRE CITY-COUNTY AIRPORT, MT, United States (KHVR) 48-33N 109-46W 787M
Aug 16, 2022 - 03:53 PM EDT / 2022.08.16 1953 UTC
Wind: Calm:0
Visibility: 10 mile(s):0
Sky conditions: clear
Temperature: 91.9 F (33.3 C)
Dew Point: 46.0 F (7.8 C)
Relative Humidity: 20%
Pressure (altimeter): 29.98 in. Hg (1015 hPa)
ob: KHVR 161953Z AUTO 00000KT 10SM CLR 33/08 A2998 RMK AO2 SLP129 T03330078
cycle: 20

Station Type Date Time Source
KHVR TAF 2022/08/16 18:22 UTC NOAA

TAF KHVR 161720Z 1618/1718 VRB06KT P6SM SKC
FM171400 31011KT P6SM FEW200
FM171600 35011KT P6SM SKC

Example: see airport list